Time;durP1;ratioP1;P1;durP2;ratioP2;P2;SDS_P1;SDS_P2;PMS_P1;PMS_P2;Temp;Humidity;BMP_temperature;BMP_pressure;BME280_temperature;BME280_humidity;BME280_pressure;Samples;Min_cycle;Max_cycle;Signal;HPM_P1;HPM_P2
2021/06/21 00:00:07;;;;;;;5.22;2.80;;;;;;;21.82;59.50;99170.34;5074962;28;20036;-75
2021/06/21 00:02:32;;;;;;;3.17;2.83;;;;;;;21.78;59.51;99169.25;5075135;28;20126;-75
2021/06/21 00:04:58;;;;;;;3.50;3.17;;;;;;;21.80;59.55;99175.16;5074850;28;20025;-74
2021/06/21 00:07:23;;;;;;;3.80;2.97;;;;;;;21.79;59.71;99165.47;5074780;28;20027;-76
2021/06/21 00:09:49;;;;;;;4.93;3.58;;;;;;;21.54;59.42;99133.88;5074897;28;20398;-75
2021/06/21 00:12:16;;;;;;;5.18;3.05;;;;;;;21.78;59.66;99165.75;5074824;28;20021;-75
2021/06/21 00:14:42;;;;;;;3.92;3.50;;;;;;;21.75;59.74;99160.88;5074738;28;20020;-75
2021/06/21 00:17:08;;;;;;;4.25;3.40;;;;;;;21.56;59.83;99131.75;5074455;28;20020;-75
2021/06/21 00:19:34;;;;;;;3.50;3.13;;;;;;;21.68;59.71;99155.75;5074900;28;20025;-75
2021/06/21 00:22:01;;;;;;;5.65;3.40;;;;;;;21.20;59.84;99068.91;5074561;28;20021;-76
2021/06/21 00:24:26;;;;;;;3.85;3.20;;;;;;;21.76;59.81;99149.06;5074535;28;20020;-74
2021/06/21 00:26:52;;;;;;;7.03;3.33;;;;;;;21.68;59.61;99149.56;5074429;28;20024;-74
2021/06/21 00:29:19;;;;;;;3.88;3.05;;;;;;;21.78;59.72;99158.50;5074344;28;20054;-75
2021/06/21 00:31:44;;;;;;;6.25;3.30;;;;;;;21.34;59.45;99082.72;5073106;28;20020;-75
2021/06/21 00:34:10;;;;;;;3.72;3.20;;;;;;;21.64;59.73;99133.16;5074515;28;20035;-74
2021/06/21 00:36:36;;;;;;;3.83;3.45;;;;;;;21.60;59.49;99124.00;5074477;28;20024;-75
2021/06/21 00:39:04;;;;;;;4.03;3.63;;;;;;;21.59;59.55;99124.25;5074500;28;20024;-75
2021/06/21 00:41:30;;;;;;;3.97;3.30;;;;;;;21.62;59.66;99123.72;5074329;28;20516;-74
2021/06/21 00:43:55;;;;;;;3.50;3.20;;;;;;;21.56;59.56;99114.84;5074303;28;20066;-76
2021/06/21 00:46:21;;;;;;;4.30;3.55;;;;;;;21.63;59.44;99136.91;5074247;28;20107;-75
2021/06/21 00:48:46;;;;;;;4.70;3.50;;;;;;;21.78;59.64;99161.19;5074162;28;20114;-75
2021/06/21 00:51:12;;;;;;;5.15;3.63;;;;;;;21.58;59.64;99119.94;5073816;28;20013;-75
2021/06/21 00:53:38;;;;;;;6.38;3.47;;;;;;;21.42;60.02;99111.78;5074216;28;20481;-75
2021/06/21 00:56:04;;;;;;;4.47;3.58;;;;;;;20.96;60.15;99042.69;5074236;28;20461;-76
2021/06/21 00:58:29;;;;;;;3.67;3.30;;;;;;;21.45;60.11;99134.63;5074261;28;20519;-76
2021/06/21 01:00:55;;;;;;;5.65;3.75;;;;;;;21.19;60.23;99098.69;5074723;28;20056;-76
2021/06/21 01:03:21;;;;;;;5.93;3.70;;;;;;;21.16;60.22;99093.84;5077922;28;20024;-75
2021/06/21 01:05:46;;;;;;;4.25;3.38;;;;;;;21.37;60.50;99135.09;5076281;28;20027;-76
2021/06/21 01:08:12;;;;;;;4.95;3.70;;;;;;;21.17;60.54;99117.75;5073618;28;20020;-75
2021/06/21 01:10:40;;;;;;;5.95;3.33;;;;;;;21.17;60.74;99117.75;5073793;28;20399;-76
2021/06/21 01:13:34;;;;;;;6.65;3.70;;;;;;;21.29;60.93;99140.94;5073536;28;20059;-75
2021/06/21 01:16:30;;;;;;;4.65;3.25;;;;;;;21.22;61.09;99141.97;5072440;28;20035;-75
2021/06/21 01:19:29;;;;;;;7.20;3.22;;;;;;;21.23;60.90;99140.91;5072435;28;20020;-75
2021/06/21 01:22:17;;;;;;;5.47;3.55;;;;;;;21.24;61.02;99147.91;5073201;28;20103;-75
2021/06/21 01:24:58;;;;;;;7.53;3.58;;;;;;;21.28;60.92;99150.06;5072153;28;20518;-75
2021/06/21 01:27:33;;;;;;;3.97;3.67;;;;;;;21.23;61.06;99140.91;5073596;28;20562;-75
2021/06/21 01:30:09;;;;;;;3.72;3.17;;;;;;;21.26;61.04;99142.28;5073657;28;20020;-75
2021/06/21 01:32:43;;;;;;;6.32;3.67;;;;;;;21.28;60.88;99137.47;5073187;28;20493;-75
2021/06/21 01:35:14;;;;;;;8.20;3.53;;;;;;;21.27;61.08;99140.41;5073499;28;20032;-75
2021/06/21 01:37:40;;;;;;;7.13;3.47;;;;;;;21.26;60.87;99147.66;5073416;28;20051;-75
2021/06/21 01:40:08;;;;;;;5.35;3.30;;;;;;;21.30;60.87;99151.44;5073095;28;20060;-75
2021/06/21 01:42:35;;;;;;;5.30;3.42;;;;;;;20.96;60.78;99091.81;5071797;28;20044;-75
2021/06/21 01:45:04;;;;;;;4.93;3.30;;;;;;;21.16;60.95;99115.31;5073052;28;20025;-75
2021/06/21 01:47:31;;;;;;;4.47;3.40;;;;;;;21.30;60.83;99132.63;5072760;28;20020;-75
2021/06/21 01:49:57;;;;;;;4.32;3.80;;;;;;;21.31;60.97;99133.44;5072871;28;20020;-75
2021/06/21 01:52:24;;;;;;;4.78;3.63;;;;;;;21.30;61.06;99142.56;5073001;28;20107;-75
2021/06/21 01:54:56;;;;;;;4.97;3.90;;;;;;;20.97;61.05;99092.63;5072904;28;20028;-75
2021/06/21 01:57:24;;;;;;;4.97;3.60;;;;;;;21.26;60.84;99142.28;5071440;28;20515;-75
2021/06/21 01:59:51;;;;;;;5.53;3.42;;;;;;;20.62;61.13;99043.75;5072702;28;20021;-74
2021/06/21 02:02:22;;;;;;;4.10;3.45;;;;;;;21.24;61.00;99142.53;5072946;28;20035;-75
2021/06/21 02:04:50;;;;;;;4.45;3.25;;;;;;;21.15;61.13;99124.44;5072721;28;20024;-75
2021/06/21 02:07:17;;;;;;;5.22;3.70;;;;;;;21.22;60.98;99135.78;5072668;28;20118;-75
2021/06/21 02:09:46;;;;;;;7.18;3.90;;;;;;;20.88;61.00;99092.28;5072745;28;20020;-74
2021/06/21 02:12:13;;;;;;;4.60;4.05;;;;;;;20.88;60.93;99090.41;5071212;28;20020;-75
2021/06/21 02:14:39;;;;;;;4.82;4.13;;;;;;;20.92;61.22;99094.19;5071806;28;20066;-74
2021/06/21 02:17:05;;;;;;;5.15;3.88;;;;;;;21.10;61.19;99116.34;5072231;28;20048;-75
2021/06/21 02:19:32;;;;;;;7.80;3.95;;;;;;;20.74;61.33;99067.72;5072550;28;20062;-75
2021/06/21 02:21:59;;;;;;;7.32;3.75;;;;;;;21.22;61.05;99136.59;5071232;28;20078;-75
2021/06/21 02:24:25;;;;;;;7.05;4.18;;;;;;;21.01;61.36;99112.53;5072783;28;20456;-75
2021/06/21 02:26:52;;;;;;;6.85;4.75;;;;;;;21.12;61.17;99139.19;5072513;28;20052;-75
2021/06/21 02:29:22;;;;;;;9.05;5.15;;;;;;;21.11;61.46;99137.56;5072117;28;20539;-75
2021/06/21 02:31:50;;;;;;;6.28;5.28;;;;;;;20.90;61.37;99111.63;5072441;28;20025;-75
2021/06/21 02:34:15;;;;;;;7.93;6.13;;;;;;;21.13;61.34;99131.94;5072217;28;20021;-75
2021/06/21 02:36:41;;;;;;;7.03;5.68;;;;;;;21.12;61.37;99130.31;5072405;28;20507;-74
2021/06/21 02:39:07;;;;;;;7.68;5.65;;;;;;;21.07;61.32;99136.47;5072227;28;20032;-76
2021/06/21 02:41:33;;;;;;;9.10;6.90;;;;;;;21.02;61.49;99139.09;5071894;28;20051;-75
2021/06/21 02:43:59;;;;;;;6.07;5.43;;;;;;;20.57;61.43;99075.91;5072151;28;20052;-75
2021/06/21 02:46:24;;;;;;;8.32;5.35;;;;;;;20.62;61.47;99077.81;5072464;28;20489;-76
2021/06/21 02:48:51;;;;;;;7.65;6.40;;;;;;;20.96;61.54;99137.44;5072440;28;20099;-74
2021/06/21 02:51:21;;;;;;;8.50;7.05;;;;;;;20.96;61.55;99139.31;5070459;28;20377;-75
2021/06/21 02:53:58;;;;;;;10.05;7.00;;;;;;;20.67;61.59;99104.69;5071829;28;20103;-74
2021/06/21 02:56:29;;;;;;;7.18;6.47;;;;;;;20.99;61.53;99146.84;5071819;28;20028;-75
2021/06/21 02:59:02;;;;;;;7.72;6.43;;;;;;;20.50;61.44;99079.84;5071919;28;20025;-74
2021/06/21 03:01:28;;;;;;;7.30;4.95;;;;;;;20.77;61.42;99115.50;5071550;28;20029;-75
2021/06/21 03:03:55;;;;;;;7.22;5.30;;;;;;;20.99;61.63;99147.66;5070285;28;20029;-75
2021/06/21 03:06:23;;;;;;;8.52;5.03;;;;;;;20.99;61.77;99157.59;5071580;28;20107;-75
2021/06/21 03:08:49;;;;;;;6.40;4.25;;;;;;;20.92;61.92;99157.81;5071632;28;20032;-75
2021/06/21 03:11:18;;;;;;;7.95;5.35;;;;;;;20.71;61.76;99134.50;5071384;28;20020;-75
2021/06/21 03:13:45;;;;;;;6.95;5.00;;;;;;;20.89;61.53;99175.22;5071351;28;20032;-74
2021/06/21 03:16:12;;;;;;;8.80;5.30;;;;;;;20.59;61.37;99132.78;5071519;28;20021;-74
2021/06/21 03:18:39;;;;;;;7.70;4.72;;;;;;;20.80;61.36;99176.72;5071452;28;20103;-74
2021/06/21 03:21:05;;;;;;;7.88;4.80;;;;;;;20.14;61.54;99082.13;5071260;28;20021;-75
2021/06/21 03:23:32;;;;;;;11.48;4.43;;;;;;;20.53;61.47;99143.72;5071332;28;20031;-75
2021/06/21 03:26:02;;;;;;;7.90;3.92;;;;;;;20.67;61.37;99185.16;5071295;28;20056;-74
2021/06/21 03:28:29;;;;;;;6.95;4.05;;;;;;;20.63;61.43;99182.19;5069987;28;20028;-75
2021/06/21 03:30:59;;;;;;;6.18;3.53;;;;;;;20.55;61.68;99184.50;5071387;28;20021;-74
2021/06/21 03:33:26;;;;;;;7.20;3.70;;;;;;;20.50;61.58;99182.56;5071518;28;20104;-74
2021/06/21 03:35:51;;;;;;;6.80;4.32;;;;;;;20.17;61.71;99135.25;5071149;28;20036;-75
2021/06/21 03:38:22;;;;;;;4.75;3.80;;;;;;;20.40;61.65;99178.97;5071154;28;20032;-73
2021/06/21 03:40:52;;;;;;;6.15;4.07;;;;;;;20.33;61.83;99168.41;5071198;28;20040;-74
2021/06/21 03:43:22;;;;;;;8.50;3.97;;;;;;;20.42;61.81;99179.53;5071247;28;20052;-73
2021/06/21 03:45:48;;;;;;;6.88;3.80;;;;;;;20.09;61.56;99122.28;5071152;28;20107;-74
2021/06/21 03:48:14;;;;;;;10.40;3.97;;;;;;;20.53;61.28;99183.94;5071093;28;20027;-75
2021/06/21 03:50:40;;;;;;;8.65;4.10;;;;;;;20.48;61.40;99175.84;5071206;28;20028;-75
2021/06/21 03:53:06;;;;;;;7.03;4.05;;;;;;;20.55;61.35;99179.13;5069800;28;20024;-74
2021/06/21 03:55:33;;;;;;;7.55;4.20;;;;;;;20.15;61.45;99132.00;5071187;28;20020;-75
2021/06/21 03:57:59;;;;;;;8.25;3.90;;;;;;;20.13;61.61;99128.75;5071118;28;20416;-75
2021/06/21 04:00:27;;;;;;;7.22;3.92;;;;;;;20.24;61.56;99149.28;5069680;28;20025;-75
2021/06/21 04:02:52;;;;;;;6.57;4.20;;;;;;;19.96;61.62;99095.84;5070869;28;20024;-75
2021/06/21 04:05:19;;;;;;;8.18;3.95;;;;;;;20.24;61.49;99135.88;5070856;28;20086;-73
2021/06/21 04:07:45;;;;;;;8.43;3.83;;;;;;;20.50;61.38;99181.75;5070644;28;20025;-76
2021/06/21 04:10:14;;;;;;;7.70;4.25;;;;;;;20.48;61.36;99184.69;5070895;28;20021;-75
2021/06/21 04:12:39;;;;;;;5.68;4.22;;;;;;;20.20;61.44;99132.06;5071045;28;20021;-76
2021/06/21 04:15:07;;;;;;;6.93;4.18;;;;;;;20.07;61.13;99088.75;5069739;28;20511;-75
2021/06/21 04:17:34;;;;;;;7.65;4.70;;;;;;;20.61;61.15;99172.75;5070775;28;20025;-75
2021/06/21 04:20:00;;;;;;;9.65;4.07;;;;;;;20.46;60.92;99149.28;5070908;28;20028;-75
2021/06/21 04:22:25;;;;;;;8.63;4.15;;;;;;;20.18;60.92;99098.53;5071431;28;20081;-76
2021/06/21 04:24:51;;;;;;;9.43;4.65;;;;;;;20.14;60.94;99074.09;5071118;28;20052;-75
2021/06/21 04:27:17;;;;;;;7.88;4.63;;;;;;;20.65;60.68;99155.09;5070798;28;20032;-75
2021/06/21 04:29:42;;;;;;;9.10;4.38;;;;;;;20.71;60.87;99178.25;5071485;28;20017;-75
2021/06/21 04:32:07;;;;;;;7.72;4.13;;;;;;;20.15;61.05;99081.09;5070422;28;20027;-75
2021/06/21 04:34:33;;;;;;;8.75;4.50;;;;;;;20.44;60.87;99140.66;5070619;28;20017;-74
2021/06/21 04:36:58;;;;;;;6.80;4.72;;;;;;;20.43;60.88;99144.41;5072201;28;20012;-75
2021/06/21 04:39:24;;;;;;;8.90;4.10;;;;;;;20.42;60.89;99115.16;5073868;28;20412;-73
2021/06/21 04:41:49;;;;;;;10.77;5.15;;;;;;;20.92;60.76;99176.59;5073923;28;20052;-76
2021/06/21 04:44:15;;;;;;;9.45;4.78;;;;;;;20.65;60.63;99125.59;5073842;28;20028;-73
2021/06/21 04:46:41;;;;;;;13.93;5.68;;;;;;;20.39;60.65;99073.59;5073683;28;20103;-75
2021/06/21 04:49:11;;;;;;;9.32;4.47;;;;;;;21.06;60.67;99177.78;5072515;28;20098;-75
2021/06/21 04:51:37;;;;;;;10.47;4.23;;;;;;;20.94;60.93;99147.63;5073804;28;20042;-75
2021/06/21 04:54:02;;;;;;;7.93;5.10;;;;;;;21.13;60.72;99172.22;5073809;28;20251;-75
2021/06/21 04:56:28;;;;;;;8.30;4.47;;;;;;;20.81;60.73;99143.47;5073922;28;20020;-74
2021/06/21 04:58:55;;;;;;;6.13;4.30;;;;;;;21.30;60.86;99194.41;5073845;28;20081;-73
2021/06/21 05:01:21;;;;;;;5.18;4.05;;;;;;;20.91;60.67;99123.97;5073905;28;20028;-73
2021/06/21 05:03:46;;;;;;;10.25;4.60;;;;;;;21.36;60.65;99171.06;5070416;28;20207;-75
2021/06/21 05:06:12;;;;;;;5.78;4.70;;;;;;;21.12;60.71;99112.34;5066385;28;20024;-75
2021/06/21 05:08:37;;;;;;;5.95;4.60;;;;;;;21.40;60.34;99135.38;5073641;28;20048;-75
2021/06/21 05:11:03;;;;;;;7.55;4.47;;;;;;;21.34;60.41;99109.56;5073709;28;20031;-75
2021/06/21 05:13:28;;;;;;;5.35;4.20;;;;;;;21.84;60.24;99170.06;5073674;28;20021;-73
2021/06/21 05:15:54;;;;;;;5.28;4.13;;;;;;;21.96;59.83;99170.69;5073192;28;20052;-76
2021/06/21 05:18:19;;;;;;;7.13;4.22;;;;;;;21.83;59.67;99144.28;5073609;28;20025;-74
2021/06/21 05:20:45;;;;;;;7.97;4.35;;;;;;;21.87;59.71;99140.00;5073145;28;20028;-75
2021/06/21 05:23:10;;;;;;;7.80;4.97;;;;;;;22.16;59.70;99183.44;5073689;28;20104;-75
2021/06/21 05:25:36;;;;;;;9.48;5.43;;;;;;;21.75;59.78;99128.63;5073341;28;20016;-75
2021/06/21 05:28:02;;;;;;;6.57;5.00;;;;;;;21.82;59.75;99123.84;5073052;28;20020;-76
2021/06/21 05:30:28;;;;;;;6.35;5.13;;;;;;;22.16;59.38;99153.84;5073236;28;20469;-75
2021/06/21 05:32:53;;;;;;;8.57;5.22;;;;;;;21.69;59.31;99062.50;5073297;28;20107;-75
2021/06/21 05:35:20;;;;;;;6.55;5.07;;;;;;;22.26;59.48;99169.22;5073447;28;20028;-75
2021/06/21 05:37:47;;;;;;;5.85;5.22;;;;;;;22.27;59.40;99171.66;5073094;28;20016;-75
2021/06/21 05:40:14;;;;;;;10.70;5.43;;;;;;;22.28;59.55;99183.22;5068653;28;20504;-75
2021/06/21 05:42:39;;;;;;;6.53;4.78;;;;;;;22.09;59.77;99143.34;5072875;28;20052;-75
2021/06/21 05:45:06;;;;;;;8.00;4.88;;;;;;;22.19;59.64;99147.94;5060182;28;20055;-75
2021/06/21 05:47:31;;;;;;;6.80;5.40;;;;;;;22.24;59.52;99149.84;5063850;28;20017;-75
2021/06/21 05:49:56;;;;;;;9.57;4.57;;;;;;;22.09;59.62;99112.97;5053471;28;20029;-75
2021/06/21 05:52:22;;;;;;;6.65;4.63;;;;;;;22.61;59.62;99188.19;5061826;28;20021;-75
2021/06/21 05:54:47;;;;;;;6.50;4.45;;;;;;;22.59;59.64;99187.66;5052926;28;20082;-76
2021/06/21 05:57:13;;;;;;;9.40;5.05;;;;;;;22.36;59.83;99145.09;5056060;28;20420;-74
2021/06/21 05:59:38;;;;;;;8.45;4.97;;;;;;;22.23;59.84;99115.97;5052631;28;20021;-75
2021/06/21 06:02:05;;;;;;;6.78;4.70;;;;;;;22.43;59.64;99138.38;5064747;28;20125;-75
2021/06/21 06:04:30;;;;;;;9.77;4.88;;;;;;;22.58;59.83;99177.97;5056664;28;20067;-75
2021/06/21 06:06:56;;;;;;;5.40;4.40;;;;;;;22.19;59.92;99096.84;5052365;28;20106;-76
2021/06/21 06:09:21;;;;;;;6.70;3.90;;;;;;;22.80;59.73;99188.53;5052455;28;20409;-74
2021/06/21 06:11:48;;;;;;;5.72;4.20;;;;;;;22.85;59.82;99193.94;5052982;28;20385;-74
2021/06/21 06:14:14;;;;;;;6.93;4.45;;;;;;;22.79;59.63;99182.31;5066577;28;20575;-76
2021/06/21 06:16:39;;;;;;;4.93;4.18;;;;;;;22.88;59.62;99198.78;5072339;28;20547;-75
2021/06/21 06:19:05;;;;;;;4.82;4.20;;;;;;;22.62;59.39;99152.13;5066068;28;20028;-75
2021/06/21 06:21:30;;;;;;;3.95;3.50;;;;;;;22.92;59.13;99199.88;5057581;28;20100;-75
2021/06/21 06:23:58;;;;;;;8.45;3.67;;;;;;;22.98;58.94;99200.69;5053359;28;20033;-74
2021/06/21 06:26:24;;;;;;;5.97;3.60;;;;;;;22.67;58.86;99148.66;5072256;28;20016;-74
2021/06/21 06:28:49;;;;;;;5.68;3.80;;;;;;;22.83;58.97;99151.13;5071899;28;20024;-73
2021/06/21 06:31:15;;;;;;;4.63;4.18;;;;;;;23.13;58.77;99203.41;5065460;28;20067;-76
2021/06/21 06:33:40;;;;;;;4.57;3.53;;;;;;;23.17;58.63;99203.69;5056185;28;20484;-75
2021/06/21 06:36:06;;;;;;;6.15;3.30;;;;;;;22.94;58.74;99148.44;5071740;28;20028;-75
2021/06/21 06:38:33;;;;;;;4.10;3.47;;;;;;;23.30;58.25;99205.84;5071801;28;20054;-74
2021/06/21 06:41:01;;;;;;;4.90;3.60;;;;;;;23.12;58.18;99162.22;5061579;28;20055;-74
2021/06/21 06:43:26;;;;;;;3.10;2.85;;;;;;;23.11;57.83;99146.31;5050504;28;20021;-72
2021/06/21 06:45:52;;;;;;;3.92;3.60;;;;;;;23.35;57.81;99165.44;5051141;28;20020;-73
2021/06/21 06:48:17;;;;;;;7.00;4.60;;;;;;;23.57;57.35;99198.31;5061047;28;20501;-73
2021/06/21 06:50:43;;;;;;;4.18;3.72;;;;;;;23.45;57.40;99162.72;5054914;28;20040;-75
2021/06/21 06:53:08;;;;;;;4.97;3.45;;;;;;;23.47;57.22;99152.50;5064382;28;20024;-75
2021/06/21 06:58:18;;;;;;;6.97;5.22;;;;;;;23.82;56.98;99189.41;5054606;28;20023;-75
2021/06/21 07:00:43;;;;;;;5.90;5.03;;;;;;;23.83;57.01;99180.25;5061891;28;20028;-75
2021/06/21 07:03:10;;;;;;;6.85;4.22;;;;;;;23.96;56.60;99186.94;5052365;28;20063;-75
2021/06/21 07:05:36;;;;;;;4.10;3.70;;;;;;;24.01;56.37;99170.75;5051357;28;20031;-74
2021/06/21 07:08:02;;;;;;;3.95;3.50;;;;;;;24.01;56.43;99176.94;5061101;28;20079;-75
2021/06/21 07:10:27;;;;;;;3.55;3.15;;;;;;;23.98;56.30;99149.72;5055315;28;20025;-75
2021/06/21 07:12:53;;;;;;;4.80;2.72;;;;;;;24.05;55.86;99153.75;5061435;28;20021;-75
2021/06/21 07:15:19;;;;;;;4.05;3.13;;;;;;;23.97;55.01;99146.22;5060066;28;20030;-75
2021/06/21 07:17:44;;;;;;;3.70;3.40;;;;;;;23.83;55.03;99115.53;5066600;28;20055;-73
2021/06/21 07:20:11;;;;;;;6.75;5.22;;;;;;;24.30;54.56;99168.22;5060401;28;20063;-75
2021/06/21 07:22:36;;;;;;;3.75;3.00;;;;;;;23.88;54.37;99099.34;5066883;28;20090;-74
2021/06/21 07:25:03;;;;;;;4.93;3.50;;;;;;;24.39;53.98;99172.78;5071094;28;20024;-75
2021/06/21 07:27:29;;;;;;;3.40;3.00;;;;;;;24.31;53.89;99150.97;5055196;28;20108;-76
2021/06/21 07:29:54;;;;;;;6.57;3.25;;;;;;;24.43;53.92;99151.44;5060682;28;20099;-73
2021/06/21 07:32:20;;;;;;;3.53;3.22;;;;;;;24.69;52.92;99174.53;5067764;28;20511;-74
2021/06/21 07:34:45;;;;;;;4.80;2.83;;;;;;;24.50;52.85;99135.75;5049890;28;20422;-76
2021/06/21 07:37:11;;;;;;;3.55;2.58;;;;;;;24.65;52.42;99143.78;5052093;28;20025;-77
2021/06/21 07:39:37;;;;;;;7.68;5.20;;;;;;;24.60;52.39;99129.50;5062801;28;20031;-73
2021/06/21 07:42:03;;;;;;;3.63;2.75;;;;;;;24.95;52.01;99177.06;5059981;28;20037;-75
2021/06/21 07:44:29;;;;;;;3.00;2.67;;;;;;;24.68;51.92;99127.03;5053213;28;20052;-76
2021/06/21 07:46:55;;;;;;;3.10;2.83;;;;;;;25.09;51.49;99178.06;5057842;28;20033;-75
2021/06/21 07:49:20;;;;;;;4.82;2.70;;;;;;;24.55;51.54;99084.47;5057851;28;20032;-76
2021/06/21 07:51:46;;;;;;;3.00;2.70;;;;;;;24.85;51.75;99120.41;5050637;28;20017;-74
2021/06/21 07:54:11;;;;;;;4.43;2.78;;;;;;;25.29;51.40;99169.81;5049914;28;20028;-75
2021/06/21 07:56:38;;;;;;;3.20;2.90;;;;;;;25.44;51.19;99176.19;5050680;28;20025;-77
2021/06/21 07:59:03;;;;;;;4.28;3.15;;;;;;;25.09;50.68;99094.31;5057529;28;20119;-72
2021/06/21 08:01:29;;;;;;;5.72;3.05;;;;;;;25.68;50.22;99177.06;5068106;28;20108;-73
2021/06/21 08:03:56;;;;;;;4.15;2.70;;;;;;;25.83;49.81;99163.38;5050059;28;20033;-74
2021/06/21 08:06:23;;;;;;;4.32;2.95;;;;;;;25.88;49.68;99148.97;5052605;28;20032;-74
2021/06/21 08:08:48;;;;;;;3.50;3.20;;;;;;;25.87;49.59;99137.34;5050717;28;20048;-75
2021/06/21 08:11:14;;;;;;;5.93;4.47;;;;;;;26.04;49.32;99136.91;5050857;28;20059;-74
2021/06/21 08:13:40;;;;;;;8.48;7.25;;;;;;;26.40;49.59;99188.72;5054111;28;20056;-74
2021/06/21 08:16:06;;;;;;;6.97;6.28;;;;;;;26.16;49.48;99144.63;5054208;28;20028;-75
2021/06/21 08:18:31;;;;;;;5.05;3.67;;;;;;;26.19;49.00;99136.72;5062975;28;20025;-75
2021/06/21 08:20:59;;;;;;;4.57;3.15;;;;;;;26.63;48.36;99183.56;5052736;28;20025;-76
2021/06/21 08:23:24;;;;;;;6.72;4.55;;;;;;;26.39;48.29;99151.91;5063524;28;20060;-75
2021/06/21 08:25:50;;;;;;;4.78;3.80;;;;;;;26.40;48.29;99123.75;5059013;28;20527;-75
2021/06/21 08:28:16;;;;;;;5.50;3.70;;;;;;;26.89;48.02;99185.63;5060044;28;20035;-75
2021/06/21 08:30:42;;;;;;;3.25;2.70;;;;;;;26.91;47.75;99188.84;5053149;28;20018;-76
2021/06/21 08:33:08;;;;;;;4.30;3.08;;;;;;;26.80;47.66;99190.09;5055811;28;20020;-75
2021/06/21 08:35:36;;;;;;;3.22;2.92;;;;;;;26.75;47.80;99187.44;5053892;28;20029;-75
2021/06/21 08:38:02;;;;;;;4.95;3.00;;;;;;;26.74;47.55;99176.88;5071598;28;20060;-75
2021/06/21 08:40:28;;;;;;;3.10;2.90;;;;;;;26.53;47.26;99166.34;5063250;28;20064;-75
2021/06/21 08:42:53;;;;;;;3.65;2.60;;;;;;;26.85;46.92;99206.28;5054188;28;20032;-74
2021/06/21 08:45:19;;;;;;;2.85;2.60;;;;;;;26.52;46.97;99137.66;5060971;28;20418;-76
2021/06/21 08:47:45;;;;;;;3.53;2.42;;;;;;;27.02;46.07;99208.50;5055778;28;20370;-75
2021/06/21 08:50:14;;;;;;;3.03;2.60;;;;;;;27.03;45.86;99184.91;5054834;28;20028;-76
2021/06/21 08:52:42;;;;;;;2.88;2.67;;;;;;;27.18;45.32;99199.03;5058325;28;20166;-75
2021/06/21 08:55:08;;;;;;;3.50;3.20;;;;;;;27.23;45.29;99193.53;5062532;28;20021;-76
2021/06/21 08:57:36;;;;;;;3.92;2.83;;;;;;;27.42;44.79;99206.22;5064787;28;20043;-75
2021/06/21 09:00:05;;;;;;;3.35;2.90;;;;;;;27.51;44.51;99204.47;5068921;28;20023;-74
2021/06/21 09:02:31;;;;;;;3.15;2.80;;;;;;;27.23;44.23;99142.03;5057339;28;20021;-74
2021/06/21 09:04:56;;;;;;;4.15;3.53;;;;;;;27.73;44.42;99199.22;5064331;28;20024;-75
2021/06/21 09:07:24;;;;;;;3.80;3.20;;;;;;;27.82;43.64;99191.19;5053265;28;20116;-73
2021/06/21 09:09:52;;;;;;;3.53;2.50;;;;;;;28.03;43.72;99199.75;5057389;28;20025;-75
2021/06/21 09:12:35;;;;;;;3.22;2.80;;;;;;;27.75;42.87;99159.03;5056136;28;20465;-73
2021/06/21 09:15:07;;;;;;;3.75;2.92;;;;;;;28.08;43.18;99207.78;5057246;28;20099;-75
2021/06/21 09:17:36;;;;;;;4.25;2.70;;;;;;;27.90;42.53;99162.56;5058322;28;20124;-75
2021/06/21 09:20:10;;;;;;;2.97;2.75;;;;;;;28.15;41.82;99200.06;5053335;28;20032;-75
2021/06/21 09:22:38;;;;;;;3.88;2.55;;;;;;;28.14;41.99;99182.16;5067989;28;20412;-75
2021/06/21 09:25:24;;;;;;;3.90;2.72;;;;;;;28.44;41.50;99197.88;5063741;28;20020;-72
2021/06/21 09:28:15;;;;;;;3.35;2.72;;;;;;;28.72;40.33;99197.81;5060245;28;20120;-74
2021/06/21 09:30:51;;;;;;;5.10;2.70;;;;;;;28.82;40.87;99183.19;5052160;28;20040;-72
2021/06/21 09:33:29;;;;;;;4.53;2.15;;;;;;;29.17;40.21;99195.22;5064487;28;20079;-75
2021/06/21 09:35:55;;;;;;;2.60;2.40;;;;;;;29.32;39.28;99200.28;5063707;28;20027;-75
2021/06/21 09:38:21;;;;;;;2.42;2.10;;;;;;;29.48;39.20;99201.53;5056648;28;20025;-73
2021/06/21 09:40:50;;;;;;;4.30;3.60;;;;;;;29.29;39.03;99144.59;5052654;28;20059;-76
2021/06/21 09:43:31;;;;;;;4.65;2.55;;;;;;;29.80;38.30;99186.03;5068387;28;20051;-75
2021/06/21 09:46:02;;;;;;;2.87;2.50;;;;;;;29.94;37.39;99195.69;5062087;28;20017;-76
2021/06/21 09:48:36;;;;;;;3.17;2.97;;;;;;;29.96;36.69;99174.41;5052765;28;20287;-72
2021/06/21 09:51:26;;;;;;;2.88;2.50;;;;;;;30.29;36.61;99199.38;5056319;28;20520;-74
2021/06/21 09:53:56;;;;;;;4.18;2.63;;;;;;;30.26;36.29;99182.84;5051449;28;20102;-76
2021/06/21 09:56:41;;;;;;;6.00;5.50;;;;;;;30.11;33.90;99069.72;5063574;28;20504;-74
2021/06/21 09:59:18;;;;;;;5.55;3.30;;;;;;;31.05;34.30;99181.84;5054610;28;20052;-75
2021/06/21 10:01:44;;;;;;;2.50;2.30;;;;;;;30.69;34.91;99144.81;5058403;28;20045;-74
2021/06/21 10:04:24;;;;;;;2.50;2.30;;;;;;;30.82;33.61;99165.66;5059341;28;20115;-73
2021/06/21 10:06:50;;;;;;;5.50;3.97;;;;;;;30.73;34.69;99136.81;5067429;28;20031;-75
2021/06/21 10:09:15;;;;;;;3.58;3.15;;;;;;;31.20;34.26;99176.72;5056052;28;20021;-72
2021/06/21 10:11:45;;;;;;;5.82;4.53;;;;;;;31.27;33.94;99155.25;5052158;28;20013;-73
2021/06/21 10:14:13;;;;;;;2.67;2.42;;;;;;;31.51;33.48;99154.69;5051921;28;20025;-74
2021/06/21 10:16:41;;;;;;;3.63;2.38;;;;;;;31.74;33.73;99157.22;5060906;28;20390;-74
2021/06/21 10:19:08;;;;;;;5.20;3.63;;;;;;;31.98;33.81;99167.59;5051783;28;20025;-75
2021/06/21 10:21:36;;;;;;;6.45;4.38;;;;;;;31.89;34.07;99115.72;5051808;28;20485;-74
2021/06/21 10:24:02;;;;;;;6.03;3.65;;;;;;;31.84;33.66;99089.41;5050269;28;20051;-75
2021/06/21 10:26:27;;;;;;;3.60;3.20;;;;;;;32.19;34.02;99152.03;5054096;28;20029;-76
2021/06/21 10:28:53;;;;;;;3.28;2.97;;;;;;;32.29;33.80;99127.09;5061597;28;20036;-76
2021/06/21 10:31:23;;;;;;;9.25;3.40;;;;;;;32.09;33.54;99078.69;5058631;28;20032;-74
2021/06/21 10:33:49;;;;;;;6.73;4.07;;;;;;;32.78;33.33;99163.75;5051932;28;20492;-73
2021/06/21 10:36:15;;;;;;;2.60;2.40;;;;;;;32.69;33.12;99157.50;5053085;28;20025;-73
2021/06/21 10:38:40;;;;;;;2.65;2.45;;;;;;;32.79;32.48;99162.63;5053102;28;20445;-76
2021/06/21 10:41:08;;;;;;;5.05;3.03;;;;;;;32.38;32.49;99157.91;5055785;28;20118;-74
2021/06/21 10:43:53;;;;;;;4.00;2.80;;;;;;;32.14;32.70;99150.31;5053230;28;21653;-74
2021/06/21 10:46:32;;;;;;;2.90;2.70;;;;;;;32.29;33.21;99139.97;5056527;28;20043;-74
2021/06/21 10:49:06;;;;;;;3.47;3.00;;;;;;;32.15;33.40;99142.91;5062818;28;20412;-73
2021/06/21 10:51:40;;;;;;;4.00;2.85;;;;;;;32.08;33.72;99115.31;5054659;28;20051;-74
2021/06/21 10:54:20;;;;;;;2.78;2.55;;;;;;;32.46;32.98;99139.84;5051430;28;20458;-76
2021/06/21 10:56:51;;;;;;;2.97;2.63;;;;;;;32.54;32.45;99097.97;5051091;28;20036;-73
2021/06/21 10:59:21;;;;;;;5.30;2.75;;;;;;;32.71;32.44;99143.53;5052991;28;20562;-77
2021/06/21 11:01:58;;;;;;;6.25;3.22;;;;;;;31.88;33.62;99103.19;5056873;28;20036;-74
2021/06/21 11:04:35;;;;;;;6.30;2.92;;;;;;;31.76;34.54;99138.59;5051701;28;20020;-75
2021/06/21 11:07:11;;;;;;;4.07;3.55;;;;;;;31.33;35.56;99134.06;5055980;28;20123;-74
2021/06/21 11:09:54;;;;;;;3.75;3.30;;;;;;;30.93;36.07;99133.44;5065222;28;20055;-74
2021/06/21 11:12:23;;;;;;;4.13;3.50;;;;;;;30.63;36.73;99137.94;5059265;28;20089;-73
2021/06/21 11:15:07;;;;;;;3.47;2.90;;;;;;;30.57;36.69;99137.25;5059406;28;20051;-75
2021/06/21 11:17:53;;;;;;;3.30;3.00;;;;;;;30.46;37.06;99143.31;5050537;28;20028;-76
2021/06/21 11:20:41;;;;;;;3.13;2.90;;;;;;;30.39;37.29;99143.78;5053225;28;20035;-75
2021/06/21 11:23:12;;;;;;;3.28;2.97;;;;;;;29.99;36.88;99104.91;5057829;28;20029;-75
2021/06/21 11:25:41;;;;;;;5.30;3.85;;;;;;;30.15;37.17;99141.50;5057081;28;20024;-76
2021/06/21 11:28:43;;;;;;;4.45;4.05;;;;;;;29.75;37.23;99097.16;5049129;28;20037;-75
2021/06/21 11:31:17;;;;;;;6.93;4.70;;;;;;;29.88;37.96;99136.28;5054938;28;20070;-74
2021/06/21 11:34:00;;;;;;;10.05;9.13;;;;;;;29.42;38.68;99066.75;5062626;28;20037;-74
2021/06/21 11:36:49;;;;;;;10.85;9.85;;;;;;;29.81;38.85;99130.47;5048627;28;20040;-74
2021/06/21 11:39:23;;;;;;;7.90;7.13;;;;;;;29.76;38.50;99133.34;5056002;28;20070;-75
2021/06/21 11:42:03;;;;;;;6.10;5.28;;;;;;;29.79;38.52;99133.53;5049395;28;20045;-75